createdAt,value
2022-08-28T00:01:34.404Z,1.63
2022-08-28T00:04:01.361Z,1.67
2022-08-28T00:06:28.027Z,2.20
2022-08-28T00:08:54.657Z,2.20
2022-08-28T00:11:21.321Z,2.17
2022-08-28T00:13:48.244Z,1.53
2022-08-28T00:16:15.098Z,2.00
2022-08-28T00:18:41.608Z,1.47
2022-08-28T00:21:08.095Z,1.57
2022-08-28T00:23:42.473Z,1.80
2022-08-28T00:26:10.058Z,2.40
2022-08-28T00:28:36.532Z,2.00
2022-08-28T00:31:05.127Z,2.23
2022-08-28T00:33:33.349Z,1.73
2022-08-28T00:36:02.902Z,1.90
2022-08-28T00:38:30.020Z,1.60
2022-08-28T00:41:00.956Z,1.50
2022-08-28T00:43:38.472Z,2.33
2022-08-28T00:46:06.586Z,2.30
2022-08-28T00:48:33.087Z,2.10
2022-08-28T00:51:18.391Z,2.50
2022-08-28T00:53:44.961Z,2.47
2022-08-28T00:56:13.362Z,2.37
2022-08-28T00:58:42.352Z,2.00
2022-08-28T01:01:09.068Z,2.70
2022-08-28T01:03:36.208Z,1.90
2022-08-28T01:06:02.957Z,2.00
2022-08-28T01:08:31.344Z,1.93
2022-08-28T01:11:00.094Z,2.27
2022-08-28T01:13:27.229Z,1.90
2022-08-28T01:15:54.533Z,1.83
2022-08-28T01:18:22.022Z,2.10
2022-08-28T01:21:07.305Z,1.97
2022-08-28T01:23:51.677Z,1.80
2022-08-28T01:26:18.249Z,2.10
2022-08-28T01:28:45.110Z,2.17
2022-08-28T01:31:12.823Z,2.43
2022-08-28T01:33:42.580Z,2.30
2022-08-28T01:36:10.488Z,2.77
2022-08-28T01:38:37.457Z,2.47
2022-08-28T01:41:03.991Z,2.33
2022-08-28T01:43:31.706Z,2.33
2022-08-28T01:46:01.928Z,2.20
2022-08-28T01:48:29.774Z,1.93
2022-08-28T01:50:56.331Z,2.63
2022-08-28T01:53:24.819Z,1.93
2022-08-28T01:56:00.566Z,2.00
2022-08-28T01:58:28.033Z,1.87
2022-08-28T02:00:57.484Z,1.83
2022-08-28T02:03:24.366Z,2.57
2022-08-28T02:05:51.338Z,2.40
2022-08-28T02:08:18.308Z,2.27
2022-08-28T02:10:45.151Z,2.23
2022-08-28T02:13:12.395Z,1.87
2022-08-28T02:15:39.597Z,2.10
2022-08-28T02:18:06.279Z,2.05
2022-08-28T02:20:33.582Z,2.87
2022-08-28T02:23:00.482Z,2.37
2022-08-28T02:25:27.636Z,2.53
2022-08-28T02:27:54.522Z,2.40
2022-08-28T02:30:21.205Z,2.37
2022-08-28T02:32:47.745Z,2.27
2022-08-28T02:35:15.689Z,2.40
2022-08-28T02:37:44.340Z,2.13
2022-08-28T02:40:14.344Z,3.13
2022-08-28T02:42:42.038Z,2.40
2022-08-28T02:45:10.767Z,2.60
2022-08-28T02:47:40.878Z,2.80
2022-08-28T02:50:07.992Z,2.13
2022-08-28T02:52:37.807Z,2.43
2022-08-28T02:55:05.982Z,1.70
2022-08-28T02:57:32.568Z,2.60
2022-08-28T02:59:59.867Z,1.70
2022-08-28T03:02:26.484Z,1.97
2022-08-28T03:04:54.516Z,2.50
2022-08-28T03:07:22.705Z,2.20
2022-08-28T03:09:49.877Z,2.50
2022-08-28T03:12:17.177Z,2.00
2022-08-28T03:14:43.698Z,2.13
2022-08-28T03:17:10.262Z,2.50
2022-08-28T03:19:36.785Z,2.17
2022-08-28T03:22:03.395Z,2.20
2022-08-28T03:24:32.050Z,2.08
2022-08-28T03:26:58.703Z,2.83
2022-08-28T03:29:25.226Z,1.77
2022-08-28T03:31:51.841Z,2.13
2022-08-28T03:34:18.511Z,2.80
2022-08-28T03:36:44.989Z,3.07
2022-08-28T03:39:11.512Z,2.47
2022-08-28T03:41:37.959Z,2.87
2022-08-28T03:44:05.098Z,3.13
2022-08-28T03:46:35.152Z,3.17
2022-08-28T03:49:02.595Z,2.47
2022-08-28T03:51:30.588Z,2.63
2022-08-28T03:53:57.843Z,2.83
2022-08-28T03:56:25.023Z,2.87
2022-08-28T03:58:54.386Z,2.57
2022-08-28T04:01:21.265Z,2.20
2022-08-28T04:03:48.064Z,2.70
2022-08-28T04:06:14.564Z,3.47
2022-08-28T04:08:41.064Z,3.37
2022-08-28T04:11:07.647Z,2.17
2022-08-28T04:13:34.157Z,2.50
2022-08-28T04:16:02.718Z,2.73
2022-08-28T04:18:32.963Z,2.63
2022-08-28T04:21:01.208Z,2.43
2022-08-28T04:23:27.773Z,2.70
2022-08-28T04:25:54.224Z,3.73
2022-08-28T04:28:20.677Z,3.00
2022-08-28T04:30:47.293Z,2.90
2022-08-28T04:33:13.758Z,2.33
2022-08-28T04:35:42.027Z,3.03
2022-08-28T04:38:08.606Z,3.00
2022-08-28T04:40:38.338Z,3.10
2022-08-28T04:43:04.842Z,2.80
2022-08-28T04:45:31.526Z,2.57
2022-08-28T04:47:58.237Z,2.33
2022-08-28T04:50:26.713Z,2.63
2022-08-28T04:52:53.216Z,2.83
2022-08-28T04:55:27.827Z,2.57
2022-08-28T04:58:06.305Z,2.23
2022-08-28T05:00:32.868Z,2.40
2022-08-28T05:02:59.410Z,2.77
2022-08-28T05:05:25.904Z,3.50
2022-08-28T05:07:52.373Z,3.13
2022-08-28T05:10:18.967Z,3.22
2022-08-28T05:12:45.572Z,3.17
2022-08-28T05:15:12.224Z,3.05
2022-08-28T05:17:38.764Z,2.92
2022-08-28T05:20:06.163Z,3.10
2022-08-28T05:22:32.857Z,2.92
2022-08-28T05:25:03.422Z,2.78
2022-08-28T05:27:29.885Z,3.45
2022-08-28T05:30:01.147Z,3.03
2022-08-28T05:32:28.513Z,3.00
2022-08-28T05:34:55.317Z,3.17
2022-08-28T05:37:21.818Z,2.78
2022-08-28T05:39:48.299Z,2.67
2022-08-28T05:42:14.791Z,3.30
2022-08-28T05:44:41.262Z,2.95
2022-08-28T05:47:07.706Z,2.40
2022-08-28T05:49:34.231Z,2.72
2022-08-28T05:52:00.753Z,2.33
2022-08-28T05:54:29.090Z,2.75
2022-08-28T05:56:55.679Z,2.47
2022-08-28T05:59:22.181Z,2.90
2022-08-28T06:01:49.737Z,2.70
2022-08-28T06:04:23.104Z,2.28
2022-08-28T06:06:50.012Z,2.45
2022-08-28T06:09:17.923Z,3.05
2022-08-28T06:11:46.320Z,2.25
2022-08-28T06:14:14.766Z,2.08
2022-08-28T06:16:45.625Z,2.17
2022-08-28T06:19:13.001Z,2.58
2022-08-28T06:21:41.276Z,2.33
2022-08-28T06:24:08.826Z,2.28
2022-08-28T06:26:35.357Z,3.10
2022-08-28T06:29:03.250Z,2.35
2022-08-28T06:31:33.262Z,2.13
2022-08-28T06:34:01.470Z,2.70
2022-08-28T06:36:29.005Z,2.33
2022-08-28T06:38:58.216Z,2.10
2022-08-28T06:41:24.859Z,2.20
2022-08-28T06:43:51.349Z,2.42
2022-08-28T06:46:18.099Z,2.20
2022-08-28T06:48:44.682Z,2.05
2022-08-28T06:51:12.128Z,2.17
2022-08-28T06:53:39.898Z,2.53
2022-08-28T06:56:11.280Z,1.83
2022-08-28T06:58:41.808Z,2.63
2022-08-28T07:01:14.315Z,2.33
2022-08-28T07:03:42.552Z,2.03
2022-08-28T07:06:11.425Z,2.70
2022-08-28T07:08:38.857Z,2.28
2022-08-28T07:11:11.321Z,2.47
2022-08-28T07:13:37.889Z,2.70
2022-08-28T07:16:04.430Z,2.42
2022-08-28T07:18:31.005Z,2.60
2022-08-28T07:20:58.525Z,2.60
2022-08-28T07:23:25.176Z,2.08
2022-08-28T07:25:51.666Z,2.47
2022-08-28T07:28:18.768Z,2.40
2022-08-28T07:30:45.835Z,2.08
2022-08-28T07:33:12.326Z,2.28
2022-08-28T07:35:42.763Z,2.30
2022-08-28T07:38:09.309Z,2.17
2022-08-28T07:40:35.873Z,2.78
2022-08-28T07:43:20.771Z,2.03
2022-08-28T07:45:47.300Z,2.30
2022-08-28T07:48:14.414Z,2.63
2022-08-28T07:50:41.464Z,2.45
2022-08-28T07:53:08.182Z,2.53
2022-08-28T07:55:34.682Z,2.72
2022-08-28T07:58:02.305Z,2.35
2022-08-28T08:00:28.776Z,2.88
2022-08-28T08:02:55.320Z,2.55
2022-08-28T08:05:21.824Z,1.90
2022-08-28T08:07:48.330Z,1.73
2022-08-28T08:10:15.051Z,2.08
2022-08-28T08:12:47.171Z,2.50
2022-08-28T08:15:13.854Z,3.17
2022-08-28T08:17:40.517Z,2.28
2022-08-28T08:20:08.313Z,2.30
2022-08-28T08:22:35.252Z,2.30
2022-08-28T08:25:04.801Z,1.90
2022-08-28T08:27:37.871Z,2.45
2022-08-28T08:30:07.865Z,1.75
2022-08-28T08:32:34.330Z,2.03
2022-08-28T08:35:00.852Z,2.47
2022-08-28T08:37:27.401Z,1.70
2022-08-28T08:39:54.882Z,2.13
2022-08-28T08:42:25.531Z,2.50
2022-08-28T08:44:53.160Z,1.80
2022-08-28T08:47:42.966Z,1.95
2022-08-28T08:50:14.239Z,2.13
2022-08-28T08:52:40.739Z,2.00
2022-08-28T08:55:10.305Z,2.38
2022-08-28T08:57:42.644Z,1.75
2022-08-28T09:00:15.891Z,1.92
2022-08-28T09:02:53.201Z,1.63
2022-08-28T09:05:22.714Z,1.77
2022-08-28T09:07:57.173Z,2.00
2022-08-28T09:10:24.925Z,1.83
2022-08-28T09:12:57.004Z,2.08
2022-08-28T09:15:30.068Z,1.42
2022-08-28T09:18:03.884Z,1.38
2022-08-28T09:20:33.175Z,1.13
2022-08-28T09:23:00.383Z,1.92
2022-08-28T09:25:47.727Z,1.67
2022-08-28T09:28:28.307Z,1.90
2022-08-28T09:31:05.959Z,1.75
2022-08-28T09:33:44.839Z,1.70
2022-08-28T09:36:30.253Z,1.52
2022-08-28T09:39:04.711Z,1.70
2022-08-28T09:41:50.091Z,1.60
2022-08-28T09:44:17.214Z,1.52
2022-08-28T09:46:46.980Z,1.67
2022-08-28T09:49:14.393Z,1.83
2022-08-28T09:51:41.431Z,1.75
2022-08-28T09:54:17.256Z,1.30
2022-08-28T09:56:44.933Z,1.55
2022-08-28T09:59:19.175Z,1.23
2022-08-28T10:01:51.787Z,1.50
2022-08-28T10:04:22.501Z,1.80
2022-08-28T10:06:53.561Z,1.70
2022-08-28T10:09:45.117Z,1.23
2022-08-28T10:12:26.643Z,1.55
2022-08-28T10:14:59.182Z,1.70
2022-08-28T10:17:35.267Z,1.65
2022-08-28T10:20:04.873Z,1.75
2022-08-28T10:22:31.304Z,1.10
2022-08-28T10:24:57.755Z,1.92
2022-08-28T10:27:39.461Z,1.30
2022-08-28T10:30:12.381Z,1.35
2022-08-28T10:32:58.452Z,1.40
2022-08-28T10:35:27.950Z,1.50
2022-08-28T10:38:10.323Z,1.65
2022-08-28T10:40:39.497Z,1.63
2022-08-28T10:43:06.055Z,1.60
2022-08-28T10:45:33.269Z,2.00
2022-08-28T10:48:14.552Z,1.60
2022-08-28T10:50:50.921Z,1.58
2022-08-28T10:53:19.331Z,1.50
2022-08-28T10:55:55.279Z,1.40
2022-08-28T10:58:25.434Z,2.40
2022-08-28T11:00:56.872Z,1.80
2022-08-28T11:03:34.502Z,1.50
2022-08-28T11:06:10.125Z,1.92
2022-08-28T11:08:38.089Z,1.60
2022-08-28T11:11:06.729Z,1.63
2022-08-28T11:13:48.550Z,1.35
2022-08-28T11:16:35.375Z,1.42
2022-08-28T11:19:22.184Z,1.65
2022-08-28T11:22:09.957Z,1.63
2022-08-28T11:24:43.588Z,1.77
2022-08-28T11:27:22.297Z,1.80
2022-08-28T11:30:07.286Z,1.60
2022-08-28T11:32:33.755Z,1.40
2022-08-28T11:35:05.719Z,1.33
2022-08-28T11:37:41.420Z,1.65
2022-08-28T11:40:34.103Z,1.63
2022-08-28T11:43:14.171Z,2.00
2022-08-28T11:45:43.001Z,1.80
2022-08-28T11:48:22.582Z,1.40
2022-08-28T11:50:52.048Z,1.45
2022-08-28T11:53:37.003Z,1.50
2022-08-28T11:56:03.445Z,1.67
2022-08-28T11:58:50.158Z,1.60
2022-08-28T12:01:26.994Z,1.70
2022-08-28T12:03:56.398Z,1.92
2022-08-28T12:06:41.702Z,1.80
2022-08-28T12:09:08.637Z,1.85
2022-08-28T12:11:41.707Z,1.67
2022-08-28T12:14:11.933Z,1.60
2022-08-28T12:16:57.029Z,1.30
2022-08-28T12:19:28.820Z,1.60
2022-08-28T12:21:55.323Z,1.80
2022-08-28T12:24:23.116Z,1.88
2022-08-28T12:26:54.741Z,1.55
2022-08-28T12:29:34.641Z,1.48
2022-08-28T12:32:16.167Z,1.70
2022-08-28T12:34:47.863Z,1.60
2022-08-28T12:37:23.476Z,1.58
2022-08-28T12:39:50.189Z,2.35
2022-08-28T12:42:20.565Z,1.85
2022-08-28T12:44:47.474Z,2.03
2022-08-28T12:47:15.447Z,1.70
2022-08-28T12:49:42.204Z,1.88
2022-08-28T12:52:11.690Z,1.60
2022-08-28T12:54:43.981Z,2.08
2022-08-28T12:57:12.073Z,2.03
2022-08-28T12:59:40.482Z,1.75
2022-08-28T13:02:07.038Z,1.48
2022-08-28T13:04:35.986Z,1.60
2022-08-28T13:07:15.959Z,1.27
2022-08-28T13:09:46.620Z,1.70
2022-08-28T13:12:44.114Z,1.70
2022-08-28T13:15:38.441Z,2.50
2022-08-28T13:18:04.936Z,1.60
2022-08-28T13:20:33.003Z,1.42
2022-08-28T13:23:00.356Z,1.52
2022-08-28T13:25:29.010Z,1.77
2022-08-28T13:27:56.570Z,1.70
2022-08-28T13:30:26.273Z,1.55
2022-08-28T13:32:58.128Z,1.45
2022-08-28T13:35:24.568Z,1.65
2022-08-28T13:37:55.629Z,1.60
2022-08-28T13:40:55.760Z,1.60
2022-08-28T13:43:11.497Z,1.50
2022-08-28T13:45:42.641Z,1.60
2022-08-28T13:48:11.154Z,1.52
2022-08-28T13:50:38.960Z,1.63
2022-08-28T13:53:05.521Z,1.20
2022-08-28T13:55:32.405Z,1.40
2022-08-28T13:57:58.982Z,1.40
2022-08-28T14:00:25.468Z,1.58
2022-08-28T14:03:10.438Z,1.60
2022-08-28T14:05:36.945Z,2.10
2022-08-28T14:08:04.478Z,1.60
2022-08-28T14:10:30.956Z,1.42
2022-08-28T14:12:57.447Z,2.10
2022-08-28T14:15:23.994Z,1.75
2022-08-28T14:17:50.536Z,1.23
2022-08-28T14:20:17.512Z,1.38
2022-08-28T14:22:44.000Z,1.42
2022-08-28T14:25:10.860Z,1.70
2022-08-28T14:27:37.831Z,1.80
2022-08-28T14:30:05.700Z,1.75
2022-08-28T14:32:32.204Z,1.55
2022-08-28T14:34:58.728Z,1.70
2022-08-28T14:37:25.186Z,1.77
2022-08-28T14:39:51.764Z,2.22
2022-08-28T14:42:18.603Z,1.58
2022-08-28T14:44:45.141Z,1.54
2022-08-28T14:47:11.888Z,1.20
2022-08-28T14:49:39.368Z,1.85
2022-08-28T14:52:06.034Z,1.50
2022-08-28T14:54:32.600Z,2.08
2022-08-28T14:56:59.101Z,2.35
2022-08-28T14:59:27.238Z,1.58
2022-08-28T15:01:55.286Z,1.60
2022-08-28T15:04:23.580Z,2.03
2022-08-28T15:06:51.301Z,1.58
2022-08-28T15:09:17.932Z,2.67
2022-08-28T15:11:44.780Z,2.17
2022-08-28T15:14:11.685Z,2.13
2022-08-28T15:16:40.827Z,1.63
2022-08-28T15:19:11.658Z,2.58
2022-08-28T15:21:41.311Z,1.55
2022-08-28T15:24:08.332Z,1.67
2022-08-28T15:26:34.841Z,1.70
2022-08-28T15:29:04.388Z,1.73
2022-08-28T15:31:31.987Z,1.90
2022-08-28T15:33:59.057Z,1.30
2022-08-28T15:36:25.610Z,1.77
2022-08-28T15:39:10.653Z,1.42
2022-08-28T15:41:38.090Z,1.55
2022-08-28T15:44:04.663Z,1.60
2022-08-28T15:46:33.620Z,1.50
2022-08-28T15:49:04.451Z,1.50
2022-08-28T15:51:34.480Z,1.48
2022-08-28T15:54:01.518Z,1.60
2022-08-28T15:56:28.117Z,1.48
2022-08-28T15:58:54.808Z,1.83
2022-08-28T16:01:22.500Z,1.50
2022-08-28T16:03:49.213Z,1.42
2022-08-28T16:06:17.188Z,2.75
2022-08-28T16:08:44.408Z,1.73
2022-08-28T16:11:14.202Z,1.52
2022-08-28T16:13:42.054Z,6.72
2022-08-28T16:16:08.705Z,2.58
2022-08-28T16:18:35.216Z,2.15
2022-08-28T16:21:04.900Z,8.38
2022-08-28T16:23:32.528Z,4.40
2022-08-28T16:25:59.753Z,2.83
2022-08-28T16:28:27.235Z,1.92
2022-08-28T16:30:53.985Z,2.28
2022-08-28T16:33:22.271Z,2.53
2022-08-28T16:35:54.961Z,2.53
2022-08-28T16:38:22.805Z,2.63
2022-08-28T16:40:49.292Z,2.40
2022-08-28T16:43:15.958Z,4.50
2022-08-28T16:45:44.072Z,2.92
2022-08-28T16:48:12.792Z,2.78
2022-08-28T16:50:39.914Z,2.20
2022-08-28T16:53:07.272Z,2.60
2022-08-28T16:55:34.172Z,2.67
2022-08-28T16:58:00.806Z,2.58
2022-08-28T17:00:27.308Z,3.85
2022-08-28T17:02:54.112Z,2.58
2022-08-28T17:05:21.324Z,2.47
2022-08-28T17:07:48.313Z,2.70
2022-08-28T17:10:16.172Z,3.35
2022-08-28T17:12:42.649Z,3.03
2022-08-28T17:15:09.791Z,2.78
2022-08-28T17:17:38.206Z,6.03
2022-08-28T17:20:05.544Z,6.70
2022-08-28T17:22:32.411Z,4.53
2022-08-28T17:25:04.101Z,4.95
2022-08-28T17:27:32.400Z,6.70
2022-08-28T17:29:59.072Z,5.13
2022-08-28T17:32:25.541Z,4.22
2022-08-28T17:34:52.011Z,4.88
2022-08-28T17:37:20.683Z,4.85
2022-08-28T17:39:47.837Z,3.90
2022-08-28T17:42:14.364Z,2.78
2022-08-28T17:44:40.973Z,3.58
2022-08-28T17:47:07.442Z,2.90
2022-08-28T17:49:34.403Z,2.40
2022-08-28T17:52:02.188Z,3.65
2022-08-28T17:54:28.686Z,2.53
2022-08-28T17:56:55.875Z,2.47
2022-08-28T17:59:23.422Z,2.38
2022-08-28T18:01:50.054Z,2.40
2022-08-28T18:04:21.631Z,2.13
2022-08-28T18:06:52.692Z,2.30
2022-08-28T18:09:19.569Z,2.28
2022-08-28T18:11:46.024Z,2.35
2022-08-28T18:14:12.811Z,2.47
2022-08-28T18:16:39.485Z,2.72
2022-08-28T18:19:08.327Z,2.22
2022-08-28T18:21:35.203Z,2.67
2022-08-28T18:24:02.038Z,2.03
2022-08-28T18:26:28.936Z,1.73
2022-08-28T18:28:55.795Z,1.98
2022-08-28T18:31:23.612Z,2.03
2022-08-28T18:33:51.567Z,2.00
2022-08-28T18:36:18.300Z,2.35
2022-08-28T18:38:45.085Z,1.70
2022-08-28T18:41:12.356Z,2.13
2022-08-28T18:43:39.438Z,2.08
2022-08-28T18:46:09.007Z,2.15
2022-08-28T18:48:36.052Z,2.05
2022-08-28T18:51:05.303Z,2.05
2022-08-28T18:53:32.241Z,1.92
2022-08-28T18:56:00.251Z,2.28
2022-08-28T18:58:29.298Z,1.88
2022-08-28T19:00:56.815Z,1.75
2022-08-28T19:03:23.327Z,2.03
2022-08-28T19:05:51.088Z,1.67
2022-08-28T19:08:17.597Z,2.00
2022-08-28T19:10:44.061Z,1.70
2022-08-28T19:13:10.557Z,1.80
2022-08-28T19:15:37.202Z,2.65
2022-08-28T19:18:04.905Z,2.03
2022-08-28T19:20:31.806Z,2.30
2022-08-28T19:22:58.377Z,2.60
2022-08-28T19:25:28.913Z,2.20
2022-08-28T19:27:59.323Z,2.58
2022-08-28T19:30:26.753Z,2.03
2022-08-28T19:32:53.330Z,2.05
2022-08-28T19:35:19.875Z,1.70
2022-08-28T19:37:46.410Z,1.55
2022-08-28T19:40:13.538Z,2.75
2022-08-28T19:42:40.485Z,1.98
2022-08-28T19:45:08.023Z,1.92
2022-08-28T19:47:35.850Z,2.03
2022-08-28T19:50:03.069Z,1.73
2022-08-28T19:52:30.043Z,1.77
2022-08-28T19:54:56.609Z,1.92
2022-08-28T19:57:23.201Z,2.05
2022-08-28T19:59:49.709Z,1.92
2022-08-28T20:02:16.220Z,1.83
2022-08-28T20:04:42.941Z,2.08
2022-08-28T20:07:09.514Z,2.28
2022-08-28T20:09:36.015Z,1.90
2022-08-28T20:12:03.744Z,1.98
2022-08-28T20:14:30.326Z,1.90
2022-08-28T20:16:58.239Z,1.88
2022-08-28T20:19:24.753Z,2.03
2022-08-28T20:21:51.467Z,2.15
2022-08-28T20:24:20.500Z,2.73
2022-08-28T20:26:47.032Z,2.00
2022-08-28T20:29:14.553Z,2.30
2022-08-28T20:31:42.240Z,2.05
2022-08-28T20:34:09.278Z,1.67
2022-08-28T20:36:35.917Z,1.85
2022-08-28T20:39:07.014Z,1.75
2022-08-28T20:41:34.260Z,1.98
2022-08-28T20:44:05.649Z,1.98
2022-08-28T20:46:37.066Z,2.10
2022-08-28T20:49:06.510Z,1.98
2022-08-28T20:51:51.409Z,2.10
2022-08-28T20:54:19.476Z,1.80
2022-08-28T20:56:46.066Z,1.40
2022-08-28T20:59:12.703Z,1.80
2022-08-28T21:01:39.497Z,1.70
2022-08-28T21:04:06.167Z,1.92
2022-08-28T21:06:32.850Z,1.80
2022-08-28T21:08:59.420Z,2.28
2022-08-28T21:11:26.928Z,1.90
2022-08-28T21:13:53.759Z,2.42
2022-08-28T21:16:20.345Z,1.90
2022-08-28T21:19:14.039Z,1.67
2022-08-28T21:21:34.405Z,1.90
2022-08-28T21:24:02.080Z,2.08
2022-08-28T21:26:28.546Z,2.13
2022-08-28T21:28:55.098Z,2.00
2022-08-28T21:31:21.861Z,1.80
2022-08-28T21:33:48.442Z,2.10
2022-08-28T21:36:16.388Z,1.90
2022-08-28T21:38:42.870Z,2.35
2022-08-28T21:41:14.039Z,1.73
2022-08-28T21:43:41.688Z,1.80
2022-08-28T21:46:09.003Z,2.20
2022-08-28T21:48:38.404Z,1.90
2022-08-28T21:51:08.911Z,1.90
2022-08-28T21:53:35.678Z,2.05
2022-08-28T21:56:02.237Z,1.98
2022-08-28T21:58:28.733Z,2.00
2022-08-28T22:00:56.904Z,1.83
2022-08-28T22:03:23.735Z,2.30
2022-08-28T22:05:50.927Z,2.05
2022-08-28T22:08:18.676Z,1.88
2022-08-28T22:10:45.309Z,1.75
2022-08-28T22:13:12.658Z,2.00
2022-08-28T22:15:40.043Z,2.03
2022-08-28T22:18:07.136Z,1.80
2022-08-28T22:20:34.758Z,2.20
2022-08-28T22:23:10.346Z,1.73
2022-08-28T22:25:40.703Z,1.83
2022-08-28T22:28:08.452Z,2.22
2022-08-28T22:30:34.998Z,2.33
2022-08-28T22:33:02.112Z,1.70
2022-08-28T22:35:28.649Z,1.90
2022-08-28T22:37:55.419Z,2.15
2022-08-28T22:40:22.608Z,1.95
2022-08-28T22:42:50.506Z,2.28
2022-08-28T22:45:17.526Z,1.77
2022-08-28T22:47:44.150Z,2.10
2022-08-28T22:50:11.005Z,2.38
2022-08-28T22:52:37.736Z,1.90
2022-08-28T22:55:04.688Z,1.90
2022-08-28T22:57:33.195Z,1.47
2022-08-28T23:00:02.997Z,2.20
2022-08-28T23:02:29.785Z,1.83
2022-08-28T23:04:56.268Z,2.00
2022-08-28T23:07:22.725Z,1.92
2022-08-28T23:09:49.294Z,1.85
2022-08-28T23:12:15.749Z,1.60
2022-08-28T23:14:45.330Z,2.08
2022-08-28T23:17:14.831Z,2.00
2022-08-28T23:19:43.449Z,2.45
2022-08-28T23:22:12.962Z,2.13
2022-08-28T23:24:39.664Z,2.13
2022-08-28T23:27:32.435Z,1.93
2022-08-28T23:29:54.606Z,2.03
2022-08-28T23:32:21.074Z,1.83
2022-08-28T23:34:47.869Z,2.25
2022-08-28T23:37:14.362Z,2.20
2022-08-28T23:39:40.799Z,2.33
2022-08-28T23:42:07.988Z,1.77
2022-08-28T23:44:34.641Z,1.80
2022-08-28T23:47:01.840Z,2.00
2022-08-28T23:49:29.161Z,2.87
2022-08-28T23:51:55.656Z,1.80
2022-08-28T23:54:22.283Z,2.10
2022-08-28T23:56:48.940Z,1.80
2022-08-28T23:59:21.150Z,2.17
